sensor_id;sensor_type;location;lat;lon;timestamp;P1;durP1;ratioP1;P2;durP2;ratioP2
52978;SDS011;51106;53.186;6.598;2022-08-19T00:00:58;7.25;;;5.32;;
52978;SDS011;51106;53.186;6.598;2022-08-19T00:03:00;3.90;;;3.50;;
52978;SDS011;51106;53.186;6.598;2022-08-19T00:05:03;6.43;;;4.60;;
52978;SDS011;51106;53.186;6.598;2022-08-19T00:07:05;5.80;;;4.85;;
52978;SDS011;51106;53.186;6.598;2022-08-19T00:09:09;8.50;;;5.60;;
52978;SDS011;51106;53.186;6.598;2022-08-19T00:11:13;9.27;;;5.28;;
52978;SDS011;51106;53.186;6.598;2022-08-19T00:13:25;9.25;;;6.68;;
52978;SDS011;51106;53.186;6.598;2022-08-19T00:15:29;8.55;;;5.82;;
52978;SDS011;51106;53.186;6.598;2022-08-19T00:17:32;11.60;;;7.45;;
52978;SDS011;51106;53.186;6.598;2022-08-19T00:19:35;12.73;;;7.53;;
52978;SDS011;51106;53.186;6.598;2022-08-19T00:21:38;9.40;;;5.90;;
52978;SDS011;51106;53.186;6.598;2022-08-19T00:23:41;8.80;;;5.90;;
52978;SDS011;51106;53.186;6.598;2022-08-19T00:25:44;9.68;;;6.18;;
52978;SDS011;51106;53.186;6.598;2022-08-19T00:27:49;10.95;;;7.82;;
52978;SDS011;51106;53.186;6.598;2022-08-19T00:29:51;9.93;;;6.75;;
52978;SDS011;51106;53.186;6.598;2022-08-19T00:31:53;9.73;;;5.68;;
52978;SDS011;51106;53.186;6.598;2022-08-19T00:33:57;7.72;;;5.07;;
52978;SDS011;51106;53.186;6.598;2022-08-19T00:36:00;8.73;;;5.43;;
52978;SDS011;51106;53.186;6.598;2022-08-19T00:38:06;9.35;;;5.20;;
52978;SDS011;51106;53.186;6.598;2022-08-19T00:40:09;7.57;;;5.20;;
52978;SDS011;51106;53.186;6.598;2022-08-19T00:42:13;8.27;;;5.63;;
52978;SDS011;51106;53.186;6.598;2022-08-19T00:44:19;7.93;;;6.10;;
52978;SDS011;51106;53.186;6.598;2022-08-19T00:46:27;9.23;;;5.60;;
52978;SDS011;51106;53.186;6.598;2022-08-19T00:48:31;5.43;;;4.33;;
52978;SDS011;51106;53.186;6.598;2022-08-19T00:50:35;7.13;;;5.63;;
52978;SDS011;51106;53.186;6.598;2022-08-19T00:52:52;8.77;;;6.28;;
52978;SDS011;51106;53.186;6.598;2022-08-19T00:54:55;8.20;;;6.07;;
52978;SDS011;51106;53.186;6.598;2022-08-19T00:56:59;7.83;;;6.10;;
52978;SDS011;51106;53.186;6.598;2022-08-19T00:59:03;8.80;;;6.57;;
52978;SDS011;51106;53.186;6.598;2022-08-19T01:01:10;5.75;;;5.15;;
52978;SDS011;51106;53.186;6.598;2022-08-19T01:03:13;10.63;;;4.93;;
52978;SDS011;51106;53.186;6.598;2022-08-19T01:05:20;9.88;;;6.22;;
52978;SDS011;51106;53.186;6.598;2022-08-19T01:07:25;7.32;;;6.10;;
52978;SDS011;51106;53.186;6.598;2022-08-19T01:09:27;9.68;;;6.13;;
52978;SDS011;51106;53.186;6.598;2022-08-19T01:11:31;7.47;;;6.10;;
52978;SDS011;51106;53.186;6.598;2022-08-19T01:13:36;6.20;;;4.90;;
52978;SDS011;51106;53.186;6.598;2022-08-19T01:15:51;8.20;;;6.47;;
52978;SDS011;51106;53.186;6.598;2022-08-19T01:17:56;8.55;;;5.45;;
52978;SDS011;51106;53.186;6.598;2022-08-19T01:20:03;8.63;;;5.55;;
52978;SDS011;51106;53.186;6.598;2022-08-19T01:24:34;8.30;;;6.32;;
52978;SDS011;51106;53.186;6.598;2022-08-19T01:26:47;8.55;;;6.25;;
52978;SDS011;51106;53.186;6.598;2022-08-19T01:28:51;7.55;;;5.20;;
52978;SDS011;51106;53.186;6.598;2022-08-19T01:31:00;10.07;;;6.25;;
52978;SDS011;51106;53.186;6.598;2022-08-19T01:33:08;9.40;;;7.40;;
52978;SDS011;51106;53.186;6.598;2022-08-19T01:35:11;5.80;;;4.85;;
52978;SDS011;51106;53.186;6.598;2022-08-19T01:37:14;9.57;;;6.70;;
52978;SDS011;51106;53.186;6.598;2022-08-19T01:39:29;7.00;;;5.80;;
52978;SDS011;51106;53.186;6.598;2022-08-19T01:41:31;8.48;;;6.20;;
52978;SDS011;51106;53.186;6.598;2022-08-19T01:43:33;9.85;;;6.68;;
52978;SDS011;51106;53.186;6.598;2022-08-19T01:45:36;6.45;;;5.13;;
52978;SDS011;51106;53.186;6.598;2022-08-19T01:47:41;12.02;;;6.82;;
52978;SDS011;51106;53.186;6.598;2022-08-19T01:50:00;7.63;;;5.70;;
52978;SDS011;51106;53.186;6.598;2022-08-19T01:52:03;5.78;;;4.43;;
52978;SDS011;51106;53.186;6.598;2022-08-19T01:54:07;6.80;;;4.68;;
52978;SDS011;51106;53.186;6.598;2022-08-19T01:56:09;6.55;;;4.43;;
52978;SDS011;51106;53.186;6.598;2022-08-19T01:58:15;6.72;;;4.78;;
52978;SDS011;51106;53.186;6.598;2022-08-19T02:00:22;5.82;;;4.40;;
52978;SDS011;51106;53.186;6.598;2022-08-19T02:02:26;6.57;;;4.85;;
52978;SDS011;51106;53.186;6.598;2022-08-19T02:04:28;5.38;;;4.40;;
52978;SDS011;51106;53.186;6.598;2022-08-19T02:06:30;6.10;;;4.07;;
52978;SDS011;51106;53.186;6.598;2022-08-19T02:08:34;6.15;;;4.55;;
52978;SDS011;51106;53.186;6.598;2022-08-19T02:10:41;5.07;;;3.55;;
52978;SDS011;51106;53.186;6.598;2022-08-19T02:12:44;6.25;;;3.60;;
52978;SDS011;51106;53.186;6.598;2022-08-19T02:14:47;5.80;;;4.00;;
52978;SDS011;51106;53.186;6.598;2022-08-19T02:16:51;5.38;;;4.00;;
52978;SDS011;51106;53.186;6.598;2022-08-19T02:18:53;9.10;;;4.18;;
52978;SDS011;51106;53.186;6.598;2022-08-19T02:20:56;7.50;;;3.70;;
52978;SDS011;51106;53.186;6.598;2022-08-19T02:22:57;5.63;;;4.53;;
52978;SDS011;51106;53.186;6.598;2022-08-19T02:24:59;4.75;;;3.67;;
52978;SDS011;51106;53.186;6.598;2022-08-19T02:27:02;5.50;;;3.42;;
52978;SDS011;51106;53.186;6.598;2022-08-19T02:29:04;8.40;;;5.03;;
52978;SDS011;51106;53.186;6.598;2022-08-19T02:31:11;8.27;;;5.70;;
52978;SDS011;51106;53.186;6.598;2022-08-19T02:33:21;10.45;;;3.80;;
52978;SDS011;51106;53.186;6.598;2022-08-19T02:35:23;5.20;;;3.90;;
52978;SDS011;51106;53.186;6.598;2022-08-19T02:37:25;5.30;;;3.40;;
52978;SDS011;51106;53.186;6.598;2022-08-19T02:39:51;5.43;;;3.40;;
52978;SDS011;51106;53.186;6.598;2022-08-19T02:41:53;4.05;;;3.50;;
52978;SDS011;51106;53.186;6.598;2022-08-19T02:43:55;5.00;;;4.20;;
52978;SDS011;51106;53.186;6.598;2022-08-19T02:46:21;9.38;;;4.30;;
52978;SDS011;51106;53.186;6.598;2022-08-19T02:48:26;7.18;;;4.55;;
52978;SDS011;51106;53.186;6.598;2022-08-19T02:50:28;8.43;;;5.57;;
52978;SDS011;51106;53.186;6.598;2022-08-19T02:52:31;6.57;;;4.85;;
52978;SDS011;51106;53.186;6.598;2022-08-19T02:56:37;10.18;;;4.90;;
52978;SDS011;51106;53.186;6.598;2022-08-19T02:58:40;6.07;;;5.03;;
52978;SDS011;51106;53.186;6.598;2022-08-19T03:00:48;7.70;;;4.60;;
52978;SDS011;51106;53.186;6.598;2022-08-19T03:02:52;6.57;;;4.95;;
52978;SDS011;51106;53.186;6.598;2022-08-19T03:04:55;6.22;;;3.88;;
52978;SDS011;51106;53.186;6.598;2022-08-19T03:06:57;6.43;;;4.10;;
52978;SDS011;51106;53.186;6.598;2022-08-19T03:09:11;7.80;;;5.53;;
52978;SDS011;51106;53.186;6.598;2022-08-19T03:11:20;7.55;;;5.95;;
52978;SDS011;51106;53.186;6.598;2022-08-19T03:13:23;7.20;;;4.70;;
52978;SDS011;51106;53.186;6.598;2022-08-19T03:15:25;8.13;;;5.82;;
52978;SDS011;51106;53.186;6.598;2022-08-19T03:17:27;12.48;;;7.65;;
52978;SDS011;51106;53.186;6.598;2022-08-19T03:19:29;16.17;;;8.40;;
52978;SDS011;51106;53.186;6.598;2022-08-19T03:21:33;9.20;;;5.83;;
52978;SDS011;51106;53.186;6.598;2022-08-19T03:23:35;9.27;;;6.57;;
52978;SDS011;51106;53.186;6.598;2022-08-19T03:25:41;8.27;;;5.07;;
52978;SDS011;51106;53.186;6.598;2022-08-19T03:27:45;9.43;;;6.60;;
52978;SDS011;51106;53.186;6.598;2022-08-19T03:29:49;6.22;;;5.47;;
52978;SDS011;51106;53.186;6.598;2022-08-19T03:31:52;7.03;;;5.65;;
52978;SDS011;51106;53.186;6.598;2022-08-19T03:33:54;7.93;;;4.93;;
52978;SDS011;51106;53.186;6.598;2022-08-19T03:36:04;8.68;;;6.30;;
52978;SDS011;51106;53.186;6.598;2022-08-19T03:38:11;13.88;;;7.75;;
52978;SDS011;51106;53.186;6.598;2022-08-19T03:40:13;10.07;;;7.38;;
52978;SDS011;51106;53.186;6.598;2022-08-19T03:42:17;7.43;;;6.05;;
52978;SDS011;51106;53.186;6.598;2022-08-19T03:44:39;7.30;;;4.80;;
52978;SDS011;51106;53.186;6.598;2022-08-19T03:46:41;8.52;;;5.85;;
52978;SDS011;51106;53.186;6.598;2022-08-19T03:48:44;12.82;;;6.95;;
52978;SDS011;51106;53.186;6.598;2022-08-19T03:50:46;10.07;;;6.25;;
52978;SDS011;51106;53.186;6.598;2022-08-19T03:52:49;6.20;;;4.25;;
52978;SDS011;51106;53.186;6.598;2022-08-19T03:54:52;7.13;;;6.03;;
52978;SDS011;51106;53.186;6.598;2022-08-19T03:56:55;6.28;;;5.45;;
52978;SDS011;51106;53.186;6.598;2022-08-19T03:58:58;5.45;;;4.28;;
52978;SDS011;51106;53.186;6.598;2022-08-19T04:01:01;5.47;;;4.50;;
52978;SDS011;51106;53.186;6.598;2022-08-19T04:03:03;5.35;;;3.55;;
52978;SDS011;51106;53.186;6.598;2022-08-19T04:05:05;4.75;;;4.00;;
52978;SDS011;51106;53.186;6.598;2022-08-19T04:07:10;5.47;;;3.45;;
52978;SDS011;51106;53.186;6.598;2022-08-19T04:09:14;9.40;;;4.43;;
52978;SDS011;51106;53.186;6.598;2022-08-19T04:11:18;7.15;;;5.95;;
52978;SDS011;51106;53.186;6.598;2022-08-19T04:13:43;5.28;;;3.78;;
52978;SDS011;51106;53.186;6.598;2022-08-19T04:15:45;5.32;;;4.13;;
52978;SDS011;51106;53.186;6.598;2022-08-19T04:17:48;6.38;;;3.97;;
52978;SDS011;51106;53.186;6.598;2022-08-19T04:19:49;5.78;;;3.33;;
52978;SDS011;51106;53.186;6.598;2022-08-19T04:21:52;5.25;;;3.92;;
52978;SDS011;51106;53.186;6.598;2022-08-19T04:23:56;4.15;;;3.13;;
52978;SDS011;51106;53.186;6.598;2022-08-19T04:25:58;4.63;;;3.10;;
52978;SDS011;51106;53.186;6.598;2022-08-19T04:28:00;3.63;;;2.78;;
52978;SDS011;51106;53.186;6.598;2022-08-19T04:30:03;3.90;;;2.80;;
52978;SDS011;51106;53.186;6.598;2022-08-19T04:32:05;4.22;;;2.78;;
52978;SDS011;51106;53.186;6.598;2022-08-19T04:34:10;3.17;;;2.47;;
52978;SDS011;51106;53.186;6.598;2022-08-19T04:36:18;4.45;;;2.70;;
52978;SDS011;51106;53.186;6.598;2022-08-19T04:38:21;4.20;;;2.55;;
52978;SDS011;51106;53.186;6.598;2022-08-19T04:40:24;3.33;;;2.47;;
52978;SDS011;51106;53.186;6.598;2022-08-19T04:42:44;5.43;;;2.55;;
52978;SDS011;51106;53.186;6.598;2022-08-19T04:44:46;3.50;;;2.40;;
52978;SDS011;51106;53.186;6.598;2022-08-19T04:46:49;3.08;;;2.55;;
52978;SDS011;51106;53.186;6.598;2022-08-19T04:48:52;3.25;;;2.72;;
52978;SDS011;51106;53.186;6.598;2022-08-19T04:50:55;3.50;;;2.72;;
52978;SDS011;51106;53.186;6.598;2022-08-19T04:53:01;2.90;;;2.40;;
52978;SDS011;51106;53.186;6.598;2022-08-19T04:55:04;3.88;;;2.80;;
52978;SDS011;51106;53.186;6.598;2022-08-19T04:57:08;3.10;;;2.60;;
52978;SDS011;51106;53.186;6.598;2022-08-19T04:59:11;3.53;;;2.80;;
52978;SDS011;51106;53.186;6.598;2022-08-19T05:01:34;5.60;;;3.33;;
52978;SDS011;51106;53.186;6.598;2022-08-19T05:03:41;5.63;;;4.15;;
52978;SDS011;51106;53.186;6.598;2022-08-19T05:05:44;6.50;;;4.85;;
52978;SDS011;51106;53.186;6.598;2022-08-19T05:07:49;6.80;;;4.05;;
52978;SDS011;51106;53.186;6.598;2022-08-19T05:09:51;7.82;;;5.15;;
52978;SDS011;51106;53.186;6.598;2022-08-19T05:11:59;8.20;;;5.90;;
52978;SDS011;51106;53.186;6.598;2022-08-19T05:14:01;10.95;;;6.70;;
52978;SDS011;51106;53.186;6.598;2022-08-19T05:16:04;9.40;;;6.68;;
52978;SDS011;51106;53.186;6.598;2022-08-19T05:18:06;10.35;;;7.60;;
52978;SDS011;51106;53.186;6.598;2022-08-19T05:20:27;15.02;;;9.05;;
52978;SDS011;51106;53.186;6.598;2022-08-19T05:22:48;12.55;;;9.30;;
52978;SDS011;51106;53.186;6.598;2022-08-19T05:24:49;15.90;;;9.88;;
52978;SDS011;51106;53.186;6.598;2022-08-19T05:27:11;15.23;;;9.32;;
52978;SDS011;51106;53.186;6.598;2022-08-19T05:29:14;16.80;;;10.98;;
52978;SDS011;51106;53.186;6.598;2022-08-19T05:31:18;14.75;;;10.30;;
52978;SDS011;51106;53.186;6.598;2022-08-19T05:33:21;18.75;;;12.15;;
52978;SDS011;51106;53.186;6.598;2022-08-19T05:35:23;12.65;;;10.00;;
52978;SDS011;51106;53.186;6.598;2022-08-19T05:37:25;18.65;;;12.10;;
52978;SDS011;51106;53.186;6.598;2022-08-19T05:39:31;21.33;;;11.90;;
52978;SDS011;51106;53.186;6.598;2022-08-19T05:41:34;19.00;;;11.82;;
52978;SDS011;51106;53.186;6.598;2022-08-19T05:43:37;18.27;;;10.73;;
52978;SDS011;51106;53.186;6.598;2022-08-19T05:45:39;15.80;;;11.13;;
52978;SDS011;51106;53.186;6.598;2022-08-19T05:47:42;15.13;;;10.90;;
52978;SDS011;51106;53.186;6.598;2022-08-19T05:49:46;16.13;;;11.27;;
52978;SDS011;51106;53.186;6.598;2022-08-19T05:51:51;16.75;;;11.38;;
52978;SDS011;51106;53.186;6.598;2022-08-19T05:53:53;17.92;;;11.27;;
52978;SDS011;51106;53.186;6.598;2022-08-19T05:55:55;16.45;;;11.05;;
52978;SDS011;51106;53.186;6.598;2022-08-19T05:58:01;17.98;;;11.40;;
52978;SDS011;51106;53.186;6.598;2022-08-19T06:00:04;17.83;;;11.88;;
52978;SDS011;51106;53.186;6.598;2022-08-19T06:02:10;13.60;;;9.55;;
52978;SDS011;51106;53.186;6.598;2022-08-19T06:04:13;18.15;;;11.20;;
52978;SDS011;51106;53.186;6.598;2022-08-19T06:06:15;17.80;;;11.63;;
52978;SDS011;51106;53.186;6.598;2022-08-19T06:08:17;19.58;;;12.82;;
52978;SDS011;51106;53.186;6.598;2022-08-19T06:10:20;17.38;;;12.30;;
52978;SDS011;51106;53.186;6.598;2022-08-19T06:12:23;14.95;;;11.18;;
52978;SDS011;51106;53.186;6.598;2022-08-19T06:14:31;16.02;;;10.85;;
52978;SDS011;51106;53.186;6.598;2022-08-19T06:16:41;19.80;;;11.55;;
52978;SDS011;51106;53.186;6.598;2022-08-19T06:18:44;17.83;;;12.35;;
52978;SDS011;51106;53.186;6.598;2022-08-19T06:20:46;16.23;;;11.77;;
52978;SDS011;51106;53.186;6.598;2022-08-19T06:22:58;13.95;;;10.20;;
52978;SDS011;51106;53.186;6.598;2022-08-19T06:25:02;15.20;;;10.77;;
52978;SDS011;51106;53.186;6.598;2022-08-19T06:27:05;11.77;;;9.73;;
52978;SDS011;51106;53.186;6.598;2022-08-19T06:29:07;15.02;;;9.80;;
52978;SDS011;51106;53.186;6.598;2022-08-19T06:31:26;12.55;;;10.10;;
52978;SDS011;51106;53.186;6.598;2022-08-19T06:33:29;12.70;;;10.52;;
52978;SDS011;51106;53.186;6.598;2022-08-19T06:35:38;12.63;;;9.85;;
52978;SDS011;51106;53.186;6.598;2022-08-19T06:37:41;14.38;;;10.88;;
52978;SDS011;51106;53.186;6.598;2022-08-19T06:39:44;14.40;;;10.30;;
52978;SDS011;51106;53.186;6.598;2022-08-19T06:41:48;14.75;;;10.85;;
52978;SDS011;51106;53.186;6.598;2022-08-19T06:43:56;14.45;;;10.55;;
52978;SDS011;51106;53.186;6.598;2022-08-19T06:45:59;15.00;;;10.13;;
52978;SDS011;51106;53.186;6.598;2022-08-19T06:48:03;12.52;;;9.30;;
52978;SDS011;51106;53.186;6.598;2022-08-19T06:50:05;12.23;;;9.32;;
52978;SDS011;51106;53.186;6.598;2022-08-19T06:52:08;14.27;;;10.27;;
52978;SDS011;51106;53.186;6.598;2022-08-19T06:54:15;10.90;;;9.38;;
52978;SDS011;51106;53.186;6.598;2022-08-19T06:56:22;13.25;;;10.60;;
52978;SDS011;51106;53.186;6.598;2022-08-19T06:58:29;13.35;;;9.13;;
52978;SDS011;51106;53.186;6.598;2022-08-19T07:00:34;12.77;;;9.25;;
52978;SDS011;51106;53.186;6.598;2022-08-19T07:02:36;15.00;;;9.90;;
52978;SDS011;51106;53.186;6.598;2022-08-19T07:04:41;11.73;;;8.82;;
52978;SDS011;51106;53.186;6.598;2022-08-19T07:06:43;14.38;;;9.63;;
52978;SDS011;51106;53.186;6.598;2022-08-19T07:08:55;13.10;;;9.55;;
52978;SDS011;51106;53.186;6.598;2022-08-19T07:10:59;13.85;;;9.40;;
52978;SDS011;51106;53.186;6.598;2022-08-19T07:13:02;13.75;;;9.60;;
52978;SDS011;51106;53.186;6.598;2022-08-19T07:15:05;10.45;;;9.00;;
52978;SDS011;51106;53.186;6.598;2022-08-19T07:17:10;12.85;;;9.48;;
52978;SDS011;51106;53.186;6.598;2022-08-19T07:19:13;10.85;;;9.23;;
52978;SDS011;51106;53.186;6.598;2022-08-19T07:21:20;12.68;;;9.38;;
52978;SDS011;51106;53.186;6.598;2022-08-19T07:23:29;11.73;;;8.65;;
52978;SDS011;51106;53.186;6.598;2022-08-19T07:25:32;11.02;;;9.55;;
52978;SDS011;51106;53.186;6.598;2022-08-19T07:27:34;11.85;;;8.85;;
52978;SDS011;51106;53.186;6.598;2022-08-19T07:29:36;9.55;;;8.55;;
52978;SDS011;51106;53.186;6.598;2022-08-19T07:31:39;12.50;;;9.13;;
52978;SDS011;51106;53.186;6.598;2022-08-19T07:33:45;14.02;;;8.80;;
52978;SDS011;51106;53.186;6.598;2022-08-19T07:37:51;11.32;;;8.05;;
52978;SDS011;51106;53.186;6.598;2022-08-19T07:39:54;12.95;;;8.85;;
52978;SDS011;51106;53.186;6.598;2022-08-19T07:41:57;11.82;;;8.52;;
52978;SDS011;51106;53.186;6.598;2022-08-19T07:44:01;9.27;;;8.23;;
52978;SDS011;51106;53.186;6.598;2022-08-19T07:46:05;11.93;;;8.48;;
52978;SDS011;51106;53.186;6.598;2022-08-19T07:48:07;10.30;;;8.23;;
52978;SDS011;51106;53.186;6.598;2022-08-19T07:50:10;8.85;;;7.05;;
52978;SDS011;51106;53.186;6.598;2022-08-19T07:52:13;9.70;;;7.93;;
52978;SDS011;51106;53.186;6.598;2022-08-19T07:54:15;10.63;;;8.38;;
52978;SDS011;51106;53.186;6.598;2022-08-19T07:56:22;10.38;;;7.72;;
52978;SDS011;51106;53.186;6.598;2022-08-19T07:58:25;11.32;;;7.82;;
52978;SDS011;51106;53.186;6.598;2022-08-19T08:00:27;8.73;;;7.47;;
52978;SDS011;51106;53.186;6.598;2022-08-19T08:02:29;10.05;;;6.75;;
52978;SDS011;51106;53.186;6.598;2022-08-19T08:04:31;9.05;;;7.32;;
52978;SDS011;51106;53.186;6.598;2022-08-19T08:06:52;10.40;;;7.43;;
52978;SDS011;51106;53.186;6.598;2022-08-19T08:09:14;8.07;;;7.28;;
52978;SDS011;51106;53.186;6.598;2022-08-19T08:11:44;11.32;;;7.78;;
52978;SDS011;51106;53.186;6.598;2022-08-19T08:13:51;10.18;;;8.13;;
52978;SDS011;51106;53.186;6.598;2022-08-19T08:16:05;8.57;;;7.63;;
52978;SDS011;51106;53.186;6.598;2022-08-19T08:18:14;9.55;;;7.97;;
52978;SDS011;51106;53.186;6.598;2022-08-19T08:20:17;10.25;;;8.15;;
52978;SDS011;51106;53.186;6.598;2022-08-19T08:22:20;9.20;;;7.40;;
52978;SDS011;51106;53.186;6.598;2022-08-19T08:24:41;9.75;;;8.15;;
52978;SDS011;51106;53.186;6.598;2022-08-19T08:26:44;9.80;;;7.88;;
52978;SDS011;51106;53.186;6.598;2022-08-19T08:28:53;8.77;;;7.10;;
52978;SDS011;51106;53.186;6.598;2022-08-19T08:30:55;9.48;;;6.90;;
52978;SDS011;51106;53.186;6.598;2022-08-19T08:32:58;9.43;;;6.93;;
52978;SDS011;51106;53.186;6.598;2022-08-19T08:35:04;8.68;;;6.60;;
52978;SDS011;51106;53.186;6.598;2022-08-19T08:37:07;9.45;;;6.28;;
52978;SDS011;51106;53.186;6.598;2022-08-19T08:39:17;8.50;;;6.05;;
52978;SDS011;51106;53.186;6.598;2022-08-19T08:41:23;8.90;;;6.50;;
52978;SDS011;51106;53.186;6.598;2022-08-19T08:43:51;8.13;;;5.97;;
52978;SDS011;51106;53.186;6.598;2022-08-19T08:48:02;8.38;;;6.25;;
52978;SDS011;51106;53.186;6.598;2022-08-19T08:52:39;7.78;;;6.38;;
52978;SDS011;51106;53.186;6.598;2022-08-19T08:54:46;9.55;;;7.38;;
52978;SDS011;51106;53.186;6.598;2022-08-19T08:56:57;9.57;;;6.90;;
52978;SDS011;51106;53.186;6.598;2022-08-19T08:59:06;10.23;;;8.05;;
52978;SDS011;51106;53.186;6.598;2022-08-19T09:01:14;13.52;;;7.78;;
52978;SDS011;51106;53.186;6.598;2022-08-19T09:03:18;12.35;;;8.75;;
52978;SDS011;51106;53.186;6.598;2022-08-19T09:05:25;8.55;;;7.47;;
52978;SDS011;51106;53.186;6.598;2022-08-19T09:08:00;7.53;;;6.75;;
52978;SDS011;51106;53.186;6.598;2022-08-19T09:12:38;11.57;;;8.90;;
52978;SDS011;51106;53.186;6.598;2022-08-19T09:14:59;10.90;;;8.20;;
52978;SDS011;51106;53.186;6.598;2022-08-19T09:17:08;9.20;;;7.13;;
52978;SDS011;51106;53.186;6.598;2022-08-19T09:19:11;10.38;;;7.63;;
52978;SDS011;51106;53.186;6.598;2022-08-19T09:21:13;7.72;;;6.82;;
52978;SDS011;51106;53.186;6.598;2022-08-19T09:23:17;7.93;;;6.90;;
52978;SDS011;51106;53.186;6.598;2022-08-19T09:25:27;10.13;;;8.43;;
52978;SDS011;51106;53.186;6.598;2022-08-19T09:27:30;8.75;;;7.40;;
52978;SDS011;51106;53.186;6.598;2022-08-19T09:29:43;10.13;;;8.50;;
52978;SDS011;51106;53.186;6.598;2022-08-19T09:31:47;11.80;;;8.20;;
52978;SDS011;51106;53.186;6.598;2022-08-19T09:33:49;8.63;;;7.60;;
52978;SDS011;51106;53.186;6.598;2022-08-19T09:36:01;9.25;;;7.45;;
52978;SDS011;51106;53.186;6.598;2022-08-19T09:38:09;9.48;;;8.20;;
52978;SDS011;51106;53.186;6.598;2022-08-19T09:40:11;10.18;;;8.88;;
52978;SDS011;51106;53.186;6.598;2022-08-19T09:42:13;11.45;;;8.55;;
52978;SDS011;51106;53.186;6.598;2022-08-19T09:44:30;10.00;;;7.95;;
52978;SDS011;51106;53.186;6.598;2022-08-19T09:46:32;12.00;;;8.65;;
52978;SDS011;51106;53.186;6.598;2022-08-19T09:48:40;8.98;;;8.07;;
52978;SDS011;51106;53.186;6.598;2022-08-19T09:50:44;10.48;;;8.77;;
52978;SDS011;51106;53.186;6.598;2022-08-19T09:52:52;11.23;;;8.88;;
52978;SDS011;51106;53.186;6.598;2022-08-19T09:54:58;11.43;;;9.40;;
52978;SDS011;51106;53.186;6.598;2022-08-19T09:57:07;10.00;;;8.00;;
52978;SDS011;51106;53.186;6.598;2022-08-19T09:59:09;9.15;;;8.25;;
52978;SDS011;51106;53.186;6.598;2022-08-19T10:01:19;11.07;;;8.02;;
52978;SDS011;51106;53.186;6.598;2022-08-19T10:03:24;9.25;;;8.07;;
52978;SDS011;51106;53.186;6.598;2022-08-19T10:05:33;9.85;;;8.85;;
52978;SDS011;51106;53.186;6.598;2022-08-19T10:07:55;8.18;;;7.38;;
52978;SDS011;51106;53.186;6.598;2022-08-19T10:09:58;9.48;;;8.10;;
52978;SDS011;51106;53.186;6.598;2022-08-19T10:12:00;11.45;;;9.13;;
52978;SDS011;51106;53.186;6.598;2022-08-19T10:14:04;9.73;;;8.63;;
52978;SDS011;51106;53.186;6.598;2022-08-19T10:16:08;8.32;;;7.53;;
52978;SDS011;51106;53.186;6.598;2022-08-19T10:18:12;10.18;;;8.07;;
52978;SDS011;51106;53.186;6.598;2022-08-19T10:20:15;8.20;;;7.40;;
52978;SDS011;51106;53.186;6.598;2022-08-19T10:22:18;9.57;;;8.60;;
52978;SDS011;51106;53.186;6.598;2022-08-19T10:24:20;10.50;;;8.13;;
52978;SDS011;51106;53.186;6.598;2022-08-19T10:26:26;10.60;;;9.48;;
52978;SDS011;51106;53.186;6.598;2022-08-19T10:28:30;8.15;;;7.35;;
52978;SDS011;51106;53.186;6.598;2022-08-19T10:30:35;10.75;;;8.77;;
52978;SDS011;51106;53.186;6.598;2022-08-19T10:32:38;13.25;;;8.85;;
52978;SDS011;51106;53.186;6.598;2022-08-19T10:34:46;10.27;;;8.32;;
52978;SDS011;51106;53.186;6.598;2022-08-19T10:36:49;13.02;;;9.20;;
52978;SDS011;51106;53.186;6.598;2022-08-19T10:39:02;11.30;;;9.10;;
52978;SDS011;51106;53.186;6.598;2022-08-19T10:41:07;10.10;;;8.10;;
52978;SDS011;51106;53.186;6.598;2022-08-19T10:43:11;10.45;;;9.15;;
52978;SDS011;51106;53.186;6.598;2022-08-19T10:45:12;10.45;;;9.35;;
52978;SDS011;51106;53.186;6.598;2022-08-19T10:47:15;9.25;;;7.55;;
52978;SDS011;51106;53.186;6.598;2022-08-19T10:49:26;11.00;;;8.23;;
52978;SDS011;51106;53.186;6.598;2022-08-19T10:51:31;10.07;;;8.73;;
52978;SDS011;51106;53.186;6.598;2022-08-19T10:53:52;8.68;;;7.78;;
52978;SDS011;51106;53.186;6.598;2022-08-19T10:55:54;9.68;;;7.78;;
52978;SDS011;51106;53.186;6.598;2022-08-19T10:58:16;8.88;;;7.90;;
52978;SDS011;51106;53.186;6.598;2022-08-19T11:00:22;9.65;;;7.55;;
52978;SDS011;51106;53.186;6.598;2022-08-19T11:02:25;9.23;;;7.93;;
52978;SDS011;51106;53.186;6.598;2022-08-19T11:04:27;9.07;;;7.22;;
52978;SDS011;51106;53.186;6.598;2022-08-19T11:06:32;14.00;;;8.57;;
52978;SDS011;51106;53.186;6.598;2022-08-19T11:08:35;8.32;;;7.50;;
52978;SDS011;51106;53.186;6.598;2022-08-19T11:10:41;8.88;;;8.02;;
52978;SDS011;51106;53.186;6.598;2022-08-19T11:12:50;8.73;;;7.53;;
52978;SDS011;51106;53.186;6.598;2022-08-19T11:14:56;9.75;;;8.23;;
52978;SDS011;51106;53.186;6.598;2022-08-19T11:16:58;10.77;;;8.52;;
52978;SDS011;51106;53.186;6.598;2022-08-19T11:19:00;12.10;;;9.52;;
52978;SDS011;51106;53.186;6.598;2022-08-19T11:21:07;12.10;;;10.90;;
52978;SDS011;51106;53.186;6.598;2022-08-19T11:23:14;13.30;;;11.70;;
52978;SDS011;51106;53.186;6.598;2022-08-19T11:25:16;11.95;;;10.32;;
52978;SDS011;51106;53.186;6.598;2022-08-19T11:27:19;9.88;;;8.88;;
52978;SDS011;51106;53.186;6.598;2022-08-19T11:29:21;10.45;;;9.30;;
52978;SDS011;51106;53.186;6.598;2022-08-19T11:31:28;12.27;;;10.48;;
52978;SDS011;51106;53.186;6.598;2022-08-19T11:33:32;11.57;;;9.30;;
52978;SDS011;51106;53.186;6.598;2022-08-19T11:35:38;10.15;;;9.15;;
52978;SDS011;51106;53.186;6.598;2022-08-19T11:37:41;9.32;;;8.18;;
52978;SDS011;51106;53.186;6.598;2022-08-19T11:39:43;7.80;;;7.00;;
52978;SDS011;51106;53.186;6.598;2022-08-19T11:41:53;7.57;;;6.88;;
52978;SDS011;51106;53.186;6.598;2022-08-19T11:43:56;8.73;;;7.93;;
52978;SDS011;51106;53.186;6.598;2022-08-19T11:45:58;10.52;;;9.50;;
52978;SDS011;51106;53.186;6.598;2022-08-19T11:48:01;10.40;;;9.40;;
52978;SDS011;51106;53.186;6.598;2022-08-19T11:50:03;10.77;;;9.57;;
52978;SDS011;51106;53.186;6.598;2022-08-19T11:52:09;9.82;;;8.88;;
52978;SDS011;51106;53.186;6.598;2022-08-19T11:54:13;13.57;;;10.60;;
52978;SDS011;51106;53.186;6.598;2022-08-19T11:56:16;13.60;;;11.43;;
52978;SDS011;51106;53.186;6.598;2022-08-19T11:58:18;13.82;;;11.20;;
52978;SDS011;51106;53.186;6.598;2022-08-19T12:00:20;14.18;;;11.18;;
52978;SDS011;51106;53.186;6.598;2022-08-19T12:02:23;11.90;;;10.70;;
52978;SDS011;51106;53.186;6.598;2022-08-19T12:04:25;11.55;;;10.45;;
52978;SDS011;51106;53.186;6.598;2022-08-19T12:06:29;11.30;;;10.20;;
52978;SDS011;51106;53.186;6.598;2022-08-19T12:08:34;13.38;;;11.15;;
52978;SDS011;51106;53.186;6.598;2022-08-19T12:10:36;13.60;;;10.40;;
52978;SDS011;51106;53.186;6.598;2022-08-19T12:12:38;12.48;;;11.18;;
52978;SDS011;51106;53.186;6.598;2022-08-19T12:14:44;10.60;;;9.40;;
52978;SDS011;51106;53.186;6.598;2022-08-19T12:16:47;11.75;;;10.05;;
52978;SDS011;51106;53.186;6.598;2022-08-19T12:18:53;11.48;;;9.90;;
52978;SDS011;51106;53.186;6.598;2022-08-19T12:20:56;11.43;;;9.88;;
52978;SDS011;51106;53.186;6.598;2022-08-19T12:22:58;11.85;;;10.63;;
52978;SDS011;51106;53.186;6.598;2022-08-19T12:25:00;10.77;;;9.00;;
52978;SDS011;51106;53.186;6.598;2022-08-19T12:27:02;16.05;;;9.45;;
52978;SDS011;51106;53.186;6.598;2022-08-19T12:29:04;12.15;;;10.70;;
52978;SDS011;51106;53.186;6.598;2022-08-19T12:31:07;9.38;;;8.30;;
52978;SDS011;51106;53.186;6.598;2022-08-19T12:33:13;12.85;;;8.70;;
52978;SDS011;51106;53.186;6.598;2022-08-19T12:35:15;11.05;;;9.18;;
52978;SDS011;51106;53.186;6.598;2022-08-19T12:37:17;10.35;;;9.07;;
52978;SDS011;51106;53.186;6.598;2022-08-19T12:39:19;28.75;;;10.43;;
52978;SDS011;51106;53.186;6.598;2022-08-19T12:41:21;10.13;;;8.55;;
52978;SDS011;51106;53.186;6.598;2022-08-19T12:43:23;9.35;;;8.35;;